createdAt,value
2023-09-28T00:00:47.552Z,7.68
2023-09-28T00:05:48.964Z,9.80
2023-09-28T00:10:50.497Z,8.75
2023-09-28T00:15:51.903Z,7.68
2023-09-28T00:20:53.325Z,7.88
2023-09-28T00:25:54.870Z,9.60
2023-09-28T00:30:56.369Z,6.78
2023-09-28T00:35:57.967Z,10.43
2023-09-28T00:40:59.449Z,6.65
2023-09-28T00:46:01.605Z,7.80
2023-09-28T00:51:05.077Z,10.73
2023-09-28T00:56:08.839Z,9.50
2023-09-28T01:01:11.664Z,9.63
2023-09-28T01:06:13.881Z,7.03
2023-09-28T01:11:15.270Z,9.85
2023-09-28T01:16:16.688Z,11.27
2023-09-28T01:21:20.003Z,7.80
2023-09-28T01:26:21.426Z,9.77
2023-09-28T01:31:22.942Z,11.30
2023-09-28T01:36:24.339Z,11.43
2023-09-28T01:41:25.770Z,8.30
2023-09-28T01:46:27.169Z,8.07
2023-09-28T01:51:28.702Z,8.00
2023-09-28T01:56:30.135Z,10.57
2023-09-28T02:01:32.983Z,10.73
2023-09-28T02:06:34.518Z,8.80
2023-09-28T02:11:35.937Z,9.63
2023-09-28T02:16:37.328Z,7.30
2023-09-28T02:21:38.792Z,10.20
2023-09-28T02:26:40.263Z,7.75
2023-09-28T02:31:42.622Z,7.97
2023-09-28T02:36:44.231Z,10.45
2023-09-28T02:41:45.647Z,7.07
2023-09-28T02:46:47.050Z,8.20
2023-09-28T02:51:49.250Z,20.48
2023-09-28T02:56:51.226Z,9.07
2023-09-28T03:01:53.232Z,7.60
2023-09-28T03:06:54.908Z,8.05
2023-09-28T03:11:56.469Z,12.35
2023-09-28T03:16:57.993Z,10.45
2023-09-28T03:21:59.915Z,10.18
2023-09-28T03:27:10.002Z,8.88
2023-09-28T03:32:12.465Z,9.63
2023-09-28T03:37:19.747Z,13.40
2023-09-28T03:42:21.129Z,13.45
2023-09-28T03:47:22.513Z,13.68
2023-09-28T03:52:23.893Z,14.55
2023-09-28T03:57:25.267Z,13.43
2023-09-28T04:02:28.272Z,14.88
2023-09-28T04:07:30.188Z,16.02
2023-09-28T04:12:31.622Z,18.48
2023-09-28T04:17:35.584Z,12.98
2023-09-28T04:22:37.332Z,19.10
2023-09-28T04:27:39.593Z,11.70
2023-09-28T04:32:41.139Z,14.57
2023-09-28T04:37:42.789Z,14.20
2023-09-28T04:42:44.249Z,16.00
2023-09-28T04:47:45.698Z,12.75
2023-09-28T04:52:47.244Z,18.48
2023-09-28T04:57:48.674Z,16.08
2023-09-28T05:02:50.651Z,14.70
2023-09-28T05:07:53.146Z,11.23
2023-09-28T05:12:55.071Z,11.27
2023-09-28T05:17:56.765Z,12.48
2023-09-28T05:22:58.345Z,13.68
2023-09-28T05:27:59.948Z,12.18
2023-09-28T05:33:01.377Z,19.92
2023-09-28T05:38:03.450Z,13.20
2023-09-28T05:43:04.833Z,13.05
2023-09-28T05:48:06.619Z,12.75
2023-09-28T05:53:08.114Z,13.57
2023-09-28T05:58:09.607Z,13.82
2023-09-28T06:03:11.032Z,15.25
2023-09-28T06:08:13.002Z,14.80
2023-09-28T06:13:14.375Z,16.67
2023-09-28T06:18:15.721Z,14.70
2023-09-28T06:23:18.152Z,14.93
2023-09-28T06:28:20.066Z,22.92
2023-09-28T06:33:27.573Z,13.10
2023-09-28T06:38:28.974Z,15.35
2023-09-28T06:43:30.880Z,18.00
2023-09-28T06:48:34.381Z,18.73
2023-09-28T06:53:36.322Z,22.02
2023-09-28T06:58:37.730Z,19.75
2023-09-28T07:03:39.179Z,18.38
2023-09-28T07:08:40.582Z,14.65
2023-09-28T07:13:42.158Z,15.82
2023-09-28T07:18:43.727Z,19.40
2023-09-28T07:23:45.210Z,14.18
2023-09-28T07:28:46.882Z,16.02
2023-09-28T07:33:49.517Z,13.95
2023-09-28T07:38:51.365Z,16.70
2023-09-28T07:43:53.036Z,22.88
2023-09-28T07:48:57.311Z,16.02
2023-09-28T07:53:58.675Z,17.48
2023-09-28T07:59:00.908Z,14.25
2023-09-28T08:04:02.441Z,12.50
2023-09-28T08:09:04.118Z,14.02
2023-09-28T08:14:06.449Z,16.40
2023-09-28T08:19:07.889Z,14.90
2023-09-28T08:24:11.312Z,14.90
2023-09-28T08:29:13.641Z,15.27
2023-09-28T08:34:19.304Z,12.18
2023-09-28T08:39:26.668Z,14.95
2023-09-28T08:44:31.123Z,13.77
2023-09-28T08:49:35.543Z,13.98
2023-09-28T08:54:37.687Z,10.40
2023-09-28T08:59:40.539Z,13.38
2023-09-28T09:04:43.553Z,14.88
2023-09-28T09:09:47.482Z,11.52
2023-09-28T09:14:49.101Z,10.85
2023-09-28T09:19:51.065Z,12.48
2023-09-28T09:24:56.476Z,8.48
2023-09-28T09:30:01.517Z,10.07
2023-09-28T09:35:04.758Z,10.15
2023-09-28T09:40:13.667Z,10.82
2023-09-28T09:45:15.143Z,6.18
2023-09-28T09:50:18.846Z,9.95
2023-09-28T09:55:21.354Z,6.82
2023-09-28T10:00:24.304Z,5.10
2023-09-28T10:05:28.536Z,6.80
2023-09-28T10:10:31.493Z,6.40
2023-09-28T10:15:34.595Z,6.95
2023-09-28T10:20:37.153Z,6.15
2023-09-28T10:25:54.476Z,6.45
2023-09-28T10:31:08.923Z,4.90
2023-09-28T10:36:14.032Z,9.75
2023-09-28T10:41:18.113Z,5.53
2023-09-28T10:46:19.770Z,5.40
2023-09-28T10:51:21.162Z,4.63
2023-09-28T10:56:22.625Z,2.88
2023-09-28T11:01:24.031Z,5.68
2023-09-28T11:06:25.661Z,4.55
2023-09-28T11:11:27.586Z,8.90
2023-09-28T11:16:29.169Z,3.60
2023-09-28T11:21:31.929Z,2.67
2023-09-28T11:26:34.823Z,3.85
2023-09-28T11:31:38.844Z,4.82
2023-09-28T11:36:41.712Z,3.20
2023-09-28T11:42:00.362Z,5.10
2023-09-28T11:47:03.067Z,4.82
2023-09-28T11:52:05.190Z,3.03
2023-09-28T11:57:08.994Z,4.57
2023-09-28T12:02:10.632Z,2.00
2023-09-28T12:07:12.562Z,4.00
2023-09-28T12:12:13.967Z,2.55
2023-09-28T12:17:16.005Z,3.30
2023-09-28T12:22:17.987Z,4.13
2023-09-28T12:27:20.516Z,2.10
2023-09-28T12:32:21.978Z,3.70
2023-09-28T12:37:23.441Z,5.03
2023-09-28T12:42:25.741Z,3.97
2023-09-28T12:47:27.311Z,5.40
2023-09-28T12:52:29.776Z,5.72
2023-09-28T12:57:31.275Z,1.77
2023-09-28T13:02:32.779Z,4.45
2023-09-28T13:07:35.292Z,4.72
2023-09-28T13:12:36.868Z,3.40
2023-09-28T13:17:39.496Z,3.85
2023-09-28T13:22:41.036Z,2.20
2023-09-28T13:27:42.452Z,4.55
2023-09-28T13:32:43.879Z,2.05
2023-09-28T13:37:46.029Z,1.85
2023-09-28T13:42:47.521Z,3.15
2023-09-28T13:47:49.038Z,1.92
2023-09-28T13:52:50.951Z,4.78
2023-09-28T13:57:52.475Z,2.10
2023-09-28T14:02:55.642Z,5.03
2023-09-28T14:07:57.662Z,5.60
2023-09-28T14:12:59.413Z,3.75
2023-09-28T14:18:00.854Z,4.68
2023-09-28T14:23:02.329Z,2.67
2023-09-28T14:28:04.132Z,4.63
2023-09-28T14:33:05.731Z,4.35
2023-09-28T14:38:07.518Z,1.73
2023-09-28T14:43:09.048Z,2.30
2023-09-28T14:48:10.574Z,2.63
2023-09-28T14:53:13.789Z,2.05
2023-09-28T14:58:15.197Z,0.98
2023-09-28T15:03:16.795Z,5.13
2023-09-28T15:08:18.714Z,2.50
2023-09-28T15:13:20.250Z,4.75
2023-09-28T15:18:21.859Z,1.17
2023-09-28T15:23:23.345Z,1.88
2023-09-28T15:28:24.774Z,4.32
2023-09-28T15:33:26.633Z,3.88
2023-09-28T15:38:28.430Z,2.75
2023-09-28T15:43:33.577Z,1.95
2023-09-28T15:48:34.966Z,4.53
2023-09-28T15:53:36.451Z,4.07
2023-09-28T15:58:37.958Z,4.43
2023-09-28T16:03:39.922Z,3.83
2023-09-28T16:08:42.090Z,2.97
2023-09-28T16:13:43.714Z,4.00
2023-09-28T16:18:45.335Z,2.17
2023-09-28T16:23:46.825Z,5.75
2023-09-28T16:28:48.261Z,3.45
2023-09-28T16:33:49.743Z,5.63
2023-09-28T16:38:51.364Z,7.85
2023-09-28T16:43:53.694Z,4.40
2023-09-28T16:48:55.319Z,4.28
2023-09-28T16:53:56.991Z,8.13
2023-09-28T16:58:58.621Z,5.32
2023-09-28T17:04:00.177Z,4.70
2023-09-28T17:09:01.608Z,2.72
2023-09-28T17:14:03.126Z,4.30
2023-09-28T17:19:05.528Z,4.68
2023-09-28T17:24:07.432Z,6.80
2023-09-28T17:29:09.049Z,8.13
2023-09-28T17:34:11.502Z,8.05
2023-09-28T17:39:12.938Z,6.78
2023-09-28T17:44:14.409Z,4.60
2023-09-28T17:49:16.219Z,4.63
2023-09-28T17:54:17.636Z,5.90
2023-09-28T17:59:19.224Z,7.25
2023-09-28T18:04:20.720Z,5.63
2023-09-28T18:09:22.205Z,4.28
2023-09-28T18:14:23.835Z,6.43
2023-09-28T18:19:25.318Z,4.28
2023-09-28T18:24:26.721Z,8.52
2023-09-28T18:29:28.182Z,5.78
2023-09-28T18:34:32.269Z,4.65
2023-09-28T18:39:34.689Z,7.40
2023-09-28T18:44:37.332Z,7.75
2023-09-28T18:49:38.869Z,8.10
2023-09-28T18:54:42.841Z,6.97
2023-09-28T18:59:45.208Z,8.55
2023-09-28T19:04:46.865Z,5.07
2023-09-28T19:09:49.384Z,6.50
2023-09-28T19:14:50.843Z,4.82
2023-09-28T19:19:54.069Z,4.50
2023-09-28T19:24:55.539Z,4.15
2023-09-28T19:29:57.358Z,5.75
2023-09-28T19:34:58.822Z,8.00
2023-09-28T19:40:00.220Z,4.63
2023-09-28T19:45:01.686Z,8.02
2023-09-28T19:50:03.336Z,6.18
2023-09-28T19:55:05.097Z,6.18
2023-09-28T20:00:08.722Z,5.68
2023-09-28T20:05:12.014Z,5.55
2023-09-28T20:10:13.753Z,6.80
2023-09-28T20:15:15.277Z,7.40
2023-09-28T20:20:16.815Z,5.60
2023-09-28T20:25:18.431Z,8.90
2023-09-28T20:30:19.852Z,7.38
2023-09-28T20:35:21.400Z,12.88
2023-09-28T20:40:22.818Z,10.20
2023-09-28T20:45:24.212Z,7.03
2023-09-28T20:50:25.757Z,6.30
2023-09-28T20:55:27.183Z,6.45
2023-09-28T21:00:28.596Z,6.38
2023-09-28T21:05:31.390Z,4.70
2023-09-28T21:10:32.808Z,6.85
2023-09-28T21:15:34.224Z,8.70
2023-09-28T21:20:35.738Z,7.28
2023-09-28T21:25:37.334Z,6.20
2023-09-28T21:30:38.726Z,8.13
2023-09-28T21:35:40.704Z,6.30
2023-09-28T21:40:42.233Z,5.40
2023-09-28T21:45:43.785Z,5.32
2023-09-28T21:50:45.211Z,5.85
2023-09-28T21:55:46.691Z,4.88
2023-09-28T22:00:48.134Z,4.63
2023-09-28T22:05:53.586Z,4.13
2023-09-28T22:10:55.131Z,6.03
2023-09-28T22:15:56.634Z,5.90
2023-09-28T22:20:58.220Z,6.28
2023-09-28T22:25:59.687Z,7.00
2023-09-28T22:31:01.350Z,4.93
2023-09-28T22:36:02.893Z,6.88
2023-09-28T22:41:04.797Z,5.93
2023-09-28T22:46:06.594Z,4.90
2023-09-28T22:51:08.016Z,5.47
2023-09-28T22:56:09.397Z,4.70
2023-09-28T23:01:10.794Z,4.53
2023-09-28T23:06:13.084Z,5.78
2023-09-28T23:11:17.411Z,6.38
2023-09-28T23:16:19.024Z,7.93
2023-09-28T23:21:20.482Z,6.60
2023-09-28T23:26:24.385Z,9.40
2023-09-28T23:31:27.610Z,7.13
2023-09-28T23:36:29.017Z,4.30
2023-09-28T23:41:30.412Z,8.45
2023-09-28T23:46:31.797Z,3.75
2023-09-28T23:51:35.038Z,4.53
2023-09-28T23:56:40.943Z,5.20
